createdAt,value
2018-12-31T00:00:03.831Z,74.57
2018-12-31T00:02:32.737Z,75.16
2018-12-31T00:05:02.134Z,75.13
2018-12-31T00:07:30.530Z,74.27
2018-12-31T00:09:58.903Z,74.21
2018-12-31T00:12:27.236Z,74.86
2018-12-31T00:14:55.573Z,74.75
2018-12-31T00:17:23.958Z,75.04
2018-12-31T00:19:52.339Z,74.06
2018-12-31T00:22:20.671Z,74.18
2018-12-31T00:24:49.009Z,74.41
2018-12-31T00:27:17.359Z,74.79
2018-12-31T00:29:45.684Z,74.72
2018-12-31T00:32:14.593Z,74.54
2018-12-31T00:34:42.965Z,74.11
2018-12-31T00:37:11.321Z,76.87
2018-12-31T00:39:39.666Z,74.64
2018-12-31T00:42:08.023Z,73.81
2018-12-31T00:44:36.360Z,72.31
2018-12-31T00:47:04.720Z,71.30
2018-12-31T00:49:33.066Z,71.75
2018-12-31T00:52:01.392Z,71.02
2018-12-31T00:54:29.769Z,72.17
2018-12-31T00:56:58.120Z,73.28
2018-12-31T00:59:26.489Z,73.83
2018-12-31T01:01:54.873Z,74.44
2018-12-31T01:04:23.228Z,74.36
2018-12-31T01:06:51.554Z,74.26
2018-12-31T01:09:19.973Z,74.47
2018-12-31T01:11:48.782Z,74.68
2018-12-31T01:14:17.379Z,75.30
2018-12-31T01:16:45.701Z,75.68
2018-12-31T01:19:14.521Z,75.23
2018-12-31T01:21:42.867Z,74.64
2018-12-31T01:24:11.174Z,75.53
2018-12-31T01:26:39.513Z,75.17
2018-12-31T01:29:07.873Z,74.63
2018-12-31T01:31:36.182Z,74.34
2018-12-31T01:34:04.637Z,75.02
2018-12-31T01:36:32.974Z,74.78
2018-12-31T01:39:01.281Z,74.37
2018-12-31T01:41:29.638Z,75.08
2018-12-31T01:43:57.989Z,75.29
2018-12-31T01:46:26.366Z,75.58
2018-12-31T01:48:54.715Z,76.19
2018-12-31T01:51:23.031Z,75.37
2018-12-31T01:53:51.356Z,74.88
2018-12-31T01:56:19.708Z,75.07
2018-12-31T01:58:48.041Z,75.20
2018-12-31T02:01:16.629Z,75.31
2018-12-31T02:03:44.951Z,75.46
2018-12-31T02:06:13.773Z,75.29
2018-12-31T02:08:42.120Z,76.08
2018-12-31T02:11:10.468Z,75.70
2018-12-31T02:13:39.641Z,75.33
2018-12-31T02:16:07.975Z,75.43
2018-12-31T02:18:36.325Z,75.55
2018-12-31T02:21:04.721Z,75.24
2018-12-31T02:23:33.135Z,75.54
2018-12-31T02:26:01.485Z,75.12
2018-12-31T02:28:29.856Z,74.47
2018-12-31T02:30:59.072Z,75.03
2018-12-31T02:33:27.408Z,75.11
2018-12-31T02:35:55.750Z,75.23
2018-12-31T02:38:24.060Z,75.53
2018-12-31T02:40:52.435Z,74.80
2018-12-31T02:43:20.903Z,75.48
2018-12-31T02:45:49.247Z,75.41
2018-12-31T02:48:18.541Z,75.32
2018-12-31T02:50:46.885Z,75.80
2018-12-31T02:53:15.671Z,76.14
2018-12-31T02:55:44.005Z,76.35
2018-12-31T02:58:12.618Z,76.53
2018-12-31T03:00:40.935Z,76.07
2018-12-31T03:03:09.322Z,76.14
2018-12-31T03:05:37.687Z,76.34
2018-12-31T03:08:06.038Z,75.79
2018-12-31T03:10:34.387Z,76.42
2018-12-31T03:13:02.816Z,75.71
2018-12-31T03:15:31.212Z,75.76
2018-12-31T03:17:59.546Z,75.79
2018-12-31T03:20:27.872Z,76.14
2018-12-31T03:22:56.214Z,75.34
2018-12-31T03:25:24.545Z,75.70
2018-12-31T03:27:52.898Z,76.75
2018-12-31T03:30:21.266Z,75.89
2018-12-31T03:32:49.621Z,76.15
2018-12-31T03:35:18.443Z,77.06
2018-12-31T03:37:46.806Z,76.93
2018-12-31T03:40:15.518Z,76.68
2018-12-31T03:42:44.025Z,76.63
2018-12-31T03:45:12.609Z,77.11
2018-12-31T03:47:41.053Z,76.24
2018-12-31T03:50:09.369Z,76.41
2018-12-31T03:52:37.789Z,76.55
2018-12-31T03:55:06.293Z,76.63
2018-12-31T03:57:34.730Z,76.81
2018-12-31T04:00:03.225Z,76.64
2018-12-31T04:02:31.589Z,76.40
2018-12-31T04:04:59.938Z,76.65
2018-12-31T04:07:28.271Z,76.55
2018-12-31T04:09:56.653Z,76.21
2018-12-31T04:12:24.984Z,75.93
2018-12-31T04:14:53.334Z,77.03
2018-12-31T04:17:22.149Z,76.81
2018-12-31T04:19:50.510Z,76.59
2018-12-31T04:22:19.502Z,76.49
2018-12-31T04:24:47.831Z,76.90
2018-12-31T04:27:16.193Z,76.59
2018-12-31T04:29:44.518Z,76.83
2018-12-31T04:32:13.442Z,77.25
2018-12-31T04:34:41.758Z,76.70
2018-12-31T04:37:10.118Z,76.00
2018-12-31T04:39:38.457Z,76.08
2018-12-31T04:42:06.813Z,76.08
2018-12-31T04:44:35.141Z,76.90
2018-12-31T04:47:03.524Z,77.29
2018-12-31T04:49:32.006Z,76.79
2018-12-31T04:52:00.370Z,76.89
2018-12-31T04:54:28.703Z,76.71
2018-12-31T04:56:57.058Z,76.18
2018-12-31T04:59:25.757Z,76.69
2018-12-31T05:01:54.066Z,76.71
2018-12-31T05:04:22.415Z,76.75
2018-12-31T05:06:50.746Z,76.95
2018-12-31T05:09:19.107Z,76.74
2018-12-31T05:11:47.447Z,77.01
2018-12-31T05:14:15.981Z,76.84
2018-12-31T05:16:44.311Z,76.51
2018-12-31T05:19:12.774Z,76.66
2018-12-31T05:21:41.093Z,75.45
2018-12-31T05:24:09.463Z,76.25
2018-12-31T05:26:37.798Z,75.83
2018-12-31T05:29:06.149Z,75.99
2018-12-31T05:31:34.784Z,76.37
2018-12-31T05:34:03.154Z,76.58
2018-12-31T05:36:31.660Z,76.47
2018-12-31T05:39:00.044Z,76.24
2018-12-31T05:41:28.372Z,76.12
2018-12-31T05:43:56.713Z,76.30
2018-12-31T05:46:25.165Z,76.63
2018-12-31T05:48:53.513Z,77.27
2018-12-31T05:51:21.843Z,76.68
2018-12-31T05:53:50.234Z,77.75
2018-12-31T05:56:18.586Z,77.23
2018-12-31T05:58:46.935Z,76.79
2018-12-31T06:01:15.411Z,77.32
2018-12-31T06:03:43.789Z,76.74
2018-12-31T06:06:12.242Z,77.31
2018-12-31T06:08:40.570Z,77.33
2018-12-31T06:11:08.901Z,77.39
2018-12-31T06:13:37.268Z,77.32
2018-12-31T06:16:05.614Z,76.82
2018-12-31T06:18:33.961Z,76.17
2018-12-31T06:21:02.389Z,76.57
2018-12-31T06:23:30.782Z,76.24
2018-12-31T06:25:59.122Z,75.90
2018-12-31T06:28:27.476Z,76.15
2018-12-31T06:30:56.772Z,76.61
2018-12-31T06:33:25.122Z,76.97
2018-12-31T06:35:53.461Z,76.63
2018-12-31T06:38:21.897Z,76.58
2018-12-31T06:40:50.324Z,75.78
2018-12-31T06:43:18.667Z,76.06
2018-12-31T06:45:47.114Z,76.41
2018-12-31T06:48:15.440Z,75.99
2018-12-31T06:50:43.828Z,76.50
2018-12-31T06:53:12.157Z,75.80
2018-12-31T06:55:40.624Z,75.93
2018-12-31T06:58:08.937Z,75.91
2018-12-31T07:00:37.347Z,76.26
2018-12-31T07:03:05.676Z,76.52
2018-12-31T07:05:34.040Z,76.39
2018-12-31T07:08:02.378Z,76.92
2018-12-31T07:10:30.733Z,77.14
2018-12-31T07:12:59.091Z,76.95
2018-12-31T07:15:27.424Z,76.57
2018-12-31T07:17:55.746Z,76.45
2018-12-31T07:20:24.135Z,77.15
2018-12-31T07:22:52.546Z,76.51
2018-12-31T07:25:20.889Z,76.95
2018-12-31T07:27:49.209Z,76.57
2018-12-31T07:30:18.506Z,76.89
2018-12-31T07:32:46.849Z,77.14
2018-12-31T07:35:15.243Z,77.90
2018-12-31T07:37:43.529Z,77.38
2018-12-31T07:40:12.155Z,77.24
2018-12-31T07:42:40.503Z,77.16
2018-12-31T07:45:09.635Z,77.10
2018-12-31T07:47:37.985Z,76.86
2018-12-31T07:50:06.347Z,77.39
2018-12-31T07:52:34.677Z,77.00
2018-12-31T07:55:03.163Z,76.56
2018-12-31T07:57:31.569Z,76.45
2018-12-31T07:59:59.975Z,76.31
2018-12-31T08:02:28.333Z,76.78
2018-12-31T08:04:56.672Z,76.38
2018-12-31T08:07:24.994Z,77.15
2018-12-31T08:09:53.365Z,80.52
2018-12-31T08:12:21.713Z,78.06
2018-12-31T08:14:50.044Z,75.82
2018-12-31T08:17:18.405Z,74.39
2018-12-31T08:19:46.722Z,74.06
2018-12-31T08:22:15.965Z,76.13
2018-12-31T08:24:44.289Z,75.24
2018-12-31T08:27:12.629Z,73.46
2018-12-31T08:29:40.969Z,72.50
2018-12-31T08:32:09.637Z,74.26
2018-12-31T08:34:37.978Z,73.19
2018-12-31T08:37:06.546Z,74.32
2018-12-31T08:39:34.848Z,73.39
2018-12-31T08:42:03.189Z,72.17
2018-12-31T08:44:31.593Z,72.16
2018-12-31T08:47:00.008Z,72.48
2018-12-31T08:49:28.334Z,72.59
2018-12-31T08:51:56.692Z,72.50
2018-12-31T08:54:25.064Z,71.71
2018-12-31T08:56:53.489Z,72.26
2018-12-31T08:59:21.827Z,71.65
2018-12-31T09:01:50.191Z,71.92
2018-12-31T09:04:18.556Z,71.80
2018-12-31T09:06:46.878Z,72.44
2018-12-31T09:09:15.209Z,71.68
2018-12-31T09:11:43.586Z,72.69
2018-12-31T09:14:11.903Z,71.69
2018-12-31T09:16:40.290Z,70.97
2018-12-31T09:19:08.769Z,71.23
2018-12-31T09:21:37.741Z,72.66
2018-12-31T09:24:06.105Z,71.77
2018-12-31T09:26:34.485Z,71.91
2018-12-31T09:29:02.902Z,70.78
2018-12-31T09:31:31.247Z,72.43
2018-12-31T09:33:59.589Z,72.21
2018-12-31T09:36:27.987Z,72.12
2018-12-31T09:38:56.305Z,71.93
2018-12-31T09:41:24.644Z,72.08
2018-12-31T09:43:52.983Z,70.84
2018-12-31T09:46:21.338Z,70.90
2018-12-31T09:48:49.700Z,71.32
2018-12-31T09:51:18.061Z,71.83
2018-12-31T09:53:46.396Z,72.98
2018-12-31T09:56:14.748Z,73.11
2018-12-31T09:58:43.173Z,73.26
2018-12-31T10:01:11.542Z,74.35
2018-12-31T10:03:39.963Z,73.38
2018-12-31T10:06:08.550Z,74.01
2018-12-31T10:08:36.898Z,74.24
2018-12-31T10:11:05.241Z,73.86
2018-12-31T10:13:33.601Z,73.54
2018-12-31T10:16:01.939Z,73.71
2018-12-31T10:18:30.294Z,73.96
2018-12-31T10:20:58.639Z,74.31
2018-12-31T10:23:27.021Z,73.52
2018-12-31T10:25:55.400Z,73.86
2018-12-31T10:28:23.811Z,73.74
2018-12-31T10:30:52.155Z,73.73
2018-12-31T10:33:20.492Z,72.97
2018-12-31T10:35:48.821Z,72.78
2018-12-31T10:38:17.597Z,72.20
2018-12-31T10:40:45.958Z,72.42
2018-12-31T10:43:14.321Z,71.87
2018-12-31T10:45:42.670Z,71.90
2018-12-31T10:48:11.016Z,71.63
2018-12-31T10:50:39.354Z,71.55
2018-12-31T10:53:07.886Z,70.76
2018-12-31T10:55:36.243Z,71.27
2018-12-31T10:58:04.567Z,71.91
2018-12-31T11:00:33.552Z,72.19
2018-12-31T11:03:02.383Z,71.43
2018-12-31T11:05:31.576Z,70.91
2018-12-31T11:08:00.890Z,70.52
2018-12-31T11:10:29.933Z,71.00
2018-12-31T11:12:59.110Z,71.57
2018-12-31T11:15:28.161Z,72.37
2018-12-31T11:17:57.082Z,72.46
2018-12-31T11:20:26.088Z,71.77
2018-12-31T11:22:54.422Z,71.35
2018-12-31T11:25:22.766Z,71.63
2018-12-31T11:27:51.113Z,72.14
2018-12-31T11:30:19.512Z,71.93
2018-12-31T11:32:47.854Z,71.86
2018-12-31T11:35:16.189Z,72.15
2018-12-31T11:37:44.513Z,71.92
2018-12-31T11:40:13.237Z,70.97
2018-12-31T11:42:41.583Z,71.37
2018-12-31T11:45:10.546Z,71.33
2018-12-31T11:47:38.855Z,71.72
2018-12-31T11:50:07.354Z,71.30
2018-12-31T11:52:35.702Z,70.91
2018-12-31T11:55:04.188Z,71.71
2018-12-31T11:57:32.535Z,72.00
2018-12-31T12:00:00.841Z,71.64
2018-12-31T12:02:29.186Z,72.03
2018-12-31T12:04:57.534Z,71.73
2018-12-31T12:07:25.874Z,71.28
2018-12-31T12:09:54.221Z,71.39
2018-12-31T12:12:22.743Z,72.34
2018-12-31T12:14:51.087Z,72.91
2018-12-31T12:17:19.430Z,72.47
2018-12-31T12:19:47.749Z,72.41
2018-12-31T12:22:16.071Z,72.19
2018-12-31T12:24:44.809Z,71.82
2018-12-31T12:27:13.172Z,72.03
2018-12-31T12:29:41.859Z,71.77
2018-12-31T12:32:10.206Z,71.78
2018-12-31T12:34:38.537Z,71.13
2018-12-31T12:37:06.993Z,71.33
2018-12-31T12:39:35.355Z,71.11
2018-12-31T12:42:03.745Z,71.49
2018-12-31T12:44:32.200Z,71.63
2018-12-31T12:47:00.583Z,71.71
2018-12-31T12:49:28.950Z,72.39
2018-12-31T12:51:57.306Z,71.36
2018-12-31T12:54:25.682Z,72.11
2018-12-31T12:56:54.002Z,71.96
2018-12-31T12:59:22.342Z,71.92
2018-12-31T13:01:50.693Z,72.78
2018-12-31T13:04:19.114Z,71.52
2018-12-31T13:06:47.440Z,71.42
2018-12-31T13:09:15.854Z,71.92
2018-12-31T13:11:44.200Z,72.83
2018-12-31T13:14:12.549Z,71.51
2018-12-31T13:16:41.189Z,71.08
2018-12-31T13:19:10.075Z,70.94
2018-12-31T13:21:39.110Z,71.17
2018-12-31T13:24:07.589Z,71.18
2018-12-31T13:26:43.368Z,71.23
2018-12-31T13:29:06.271Z,71.78
2018-12-31T13:31:34.660Z,71.09
2018-12-31T13:34:03.097Z,72.16
2018-12-31T13:36:31.467Z,71.52
2018-12-31T13:39:00.405Z,72.29
2018-12-31T13:41:29.065Z,71.26
2018-12-31T13:43:57.409Z,72.18
2018-12-31T13:46:25.790Z,71.61
2018-12-31T13:48:54.103Z,72.14
2018-12-31T13:51:22.466Z,72.13
2018-12-31T13:53:51.235Z,71.87
2018-12-31T13:56:19.579Z,71.96
2018-12-31T13:58:48.009Z,72.32
2018-12-31T14:01:16.354Z,73.36
2018-12-31T14:03:44.715Z,73.19
2018-12-31T14:06:13.045Z,73.05
2018-12-31T14:08:41.376Z,73.77
2018-12-31T14:11:09.981Z,73.34
2018-12-31T14:13:38.304Z,73.37
2018-12-31T14:16:06.768Z,73.46
2018-12-31T14:18:35.066Z,73.89
2018-12-31T14:21:03.417Z,72.85
2018-12-31T14:23:31.770Z,73.29
2018-12-31T14:26:00.141Z,73.60
2018-12-31T14:28:28.572Z,73.99
2018-12-31T14:30:57.028Z,74.77
2018-12-31T14:33:25.385Z,73.74
2018-12-31T14:35:53.751Z,74.40
2018-12-31T14:38:22.154Z,74.37
2018-12-31T14:40:50.586Z,74.25
2018-12-31T14:43:18.928Z,73.46
2018-12-31T14:45:47.578Z,74.06
2018-12-31T14:48:15.964Z,74.47
2018-12-31T14:50:44.305Z,74.83
2018-12-31T14:53:12.731Z,75.32
2018-12-31T14:55:41.737Z,76.08
2018-12-31T14:58:10.393Z,75.03
2018-12-31T15:00:38.727Z,75.13
2018-12-31T15:03:07.082Z,74.70
2018-12-31T15:05:35.561Z,74.59
2018-12-31T15:08:04.009Z,75.23
2018-12-31T15:10:32.354Z,75.13
2018-12-31T15:13:00.698Z,75.34
2018-12-31T15:15:29.105Z,75.53
2018-12-31T15:17:57.426Z,75.57
2018-12-31T15:20:25.756Z,75.60
2018-12-31T15:22:54.170Z,75.22
2018-12-31T15:25:22.609Z,76.03
2018-12-31T15:27:51.019Z,76.08
2018-12-31T15:30:19.426Z,76.56
2018-12-31T15:32:50.101Z,75.84
2018-12-31T15:35:18.435Z,75.80
2018-12-31T15:37:46.831Z,76.30
2018-12-31T15:40:15.151Z,75.90
2018-12-31T15:42:43.498Z,75.51
2018-12-31T15:45:12.429Z,76.02
2018-12-31T15:47:41.102Z,75.51
2018-12-31T15:50:09.694Z,75.93
2018-12-31T15:52:38.296Z,75.77
2018-12-31T15:55:06.667Z,76.56
2018-12-31T15:57:35.106Z,76.39
2018-12-31T16:00:04.773Z,76.06
2018-12-31T16:02:33.546Z,76.13
2018-12-31T16:05:02.020Z,77.18
2018-12-31T16:07:30.457Z,76.75
2018-12-31T16:09:58.788Z,76.32
2018-12-31T16:12:27.172Z,76.04
2018-12-31T16:14:55.647Z,76.12
2018-12-31T16:17:24.060Z,75.95
2018-12-31T16:19:52.415Z,76.14
2018-12-31T16:22:21.606Z,76.93
2018-12-31T16:24:49.927Z,76.03
2018-12-31T16:27:18.260Z,77.38
2018-12-31T16:29:46.642Z,76.87
2018-12-31T16:32:15.180Z,77.00
2018-12-31T16:34:43.586Z,76.93
2018-12-31T16:37:12.133Z,77.00
2018-12-31T16:39:40.493Z,77.29
2018-12-31T16:42:09.050Z,77.22
2018-12-31T16:44:37.520Z,77.26
2018-12-31T16:47:05.973Z,77.10
2018-12-31T16:49:34.359Z,76.37
2018-12-31T16:52:03.470Z,76.25
2018-12-31T16:54:32.550Z,76.65
2018-12-31T16:57:00.957Z,75.81
2018-12-31T16:59:29.297Z,76.21
2018-12-31T17:01:57.629Z,76.96
2018-12-31T17:04:26.001Z,76.84
2018-12-31T17:06:54.431Z,77.11
2018-12-31T17:09:22.800Z,76.96
2018-12-31T17:11:51.160Z,77.08
2018-12-31T17:14:19.518Z,76.44
2018-12-31T17:16:47.848Z,76.73
2018-12-31T17:19:16.213Z,76.26
2018-12-31T17:21:44.726Z,76.24
2018-12-31T17:24:13.213Z,77.13
2018-12-31T17:26:41.527Z,76.93
2018-12-31T17:29:09.885Z,76.96
2018-12-31T17:31:38.211Z,77.40
2018-12-31T17:34:06.993Z,77.08
2018-12-31T17:36:35.345Z,77.28
2018-12-31T17:39:06.559Z,77.03
2018-12-31T17:41:34.889Z,78.20
2018-12-31T17:44:03.309Z,77.58
2018-12-31T17:46:31.666Z,77.79
2018-12-31T17:49:00.202Z,77.63
2018-12-31T17:51:28.613Z,77.49
2018-12-31T17:53:56.960Z,77.06
2018-12-31T17:56:25.362Z,76.82
2018-12-31T17:58:53.703Z,77.76
2018-12-31T18:01:22.129Z,77.05
2018-12-31T18:03:50.872Z,77.38
2018-12-31T18:06:19.718Z,77.35
2018-12-31T18:08:48.040Z,77.05
2018-12-31T18:11:16.650Z,77.59
2018-12-31T18:13:45.278Z,76.91
2018-12-31T18:16:13.990Z,77.47
2018-12-31T18:18:42.323Z,76.73
2018-12-31T18:21:10.798Z,77.45
2018-12-31T18:23:39.139Z,76.70
2018-12-31T18:26:07.817Z,76.86
2018-12-31T18:28:36.156Z,77.24
2018-12-31T18:31:04.516Z,77.01
2018-12-31T18:33:32.882Z,76.59
2018-12-31T18:36:01.232Z,76.12
2018-12-31T18:38:29.620Z,76.90
2018-12-31T18:40:59.053Z,76.42
2018-12-31T18:43:27.423Z,76.69
2018-12-31T18:45:55.770Z,76.51
2018-12-31T18:48:24.117Z,76.43
2018-12-31T18:50:52.492Z,76.26
2018-12-31T18:53:20.865Z,76.78
2018-12-31T18:55:49.210Z,76.82
2018-12-31T18:58:17.547Z,77.19
2018-12-31T19:00:45.898Z,76.77
2018-12-31T19:03:14.720Z,77.35
2018-12-31T19:05:43.479Z,76.94
2018-12-31T19:08:12.015Z,76.71
2018-12-31T19:10:40.360Z,77.32
2018-12-31T19:13:08.767Z,76.93
2018-12-31T19:15:37.106Z,76.97
2018-12-31T19:18:05.461Z,76.31
2018-12-31T19:20:33.781Z,76.30
2018-12-31T19:23:02.198Z,76.56
2018-12-31T19:25:30.649Z,76.13
2018-12-31T19:27:59.010Z,76.25
2018-12-31T19:30:27.497Z,76.65
2018-12-31T19:32:56.454Z,76.59
2018-12-31T19:35:24.801Z,76.96
2018-12-31T19:37:53.150Z,75.90
2018-12-31T19:40:21.490Z,76.62
2018-12-31T19:42:49.851Z,75.59
2018-12-31T19:45:18.361Z,75.99
2018-12-31T19:47:46.700Z,76.55
2018-12-31T19:50:41.163Z,76.68
2018-12-31T19:53:09.513Z,76.99
2018-12-31T19:55:37.849Z,76.69
2018-12-31T19:58:06.191Z,77.15
2018-12-31T20:00:34.540Z,76.36
2018-12-31T20:03:02.989Z,76.65
2018-12-31T20:05:31.329Z,76.71
2018-12-31T20:07:59.975Z,76.69
2018-12-31T20:10:28.295Z,76.96
2018-12-31T20:12:56.717Z,76.57
2018-12-31T20:15:25.070Z,76.86
2018-12-31T20:17:53.460Z,76.19
2018-12-31T20:20:21.910Z,75.78
2018-12-31T20:22:50.948Z,76.37
2018-12-31T20:25:19.410Z,76.94
2018-12-31T20:27:47.750Z,77.40
2018-12-31T20:30:16.444Z,76.68
2018-12-31T20:32:44.758Z,76.92
2018-12-31T20:35:13.975Z,77.48
2018-12-31T20:37:42.318Z,77.64
2018-12-31T20:40:10.777Z,76.69
2018-12-31T20:42:39.122Z,77.39
2018-12-31T20:45:07.663Z,77.34
2018-12-31T20:47:35.996Z,77.14
2018-12-31T20:50:06.166Z,77.24
2018-12-31T20:52:34.522Z,76.77
2018-12-31T20:55:02.876Z,77.39
2018-12-31T20:57:31.293Z,77.39
2018-12-31T20:59:59.682Z,77.69
2018-12-31T21:02:27.992Z,77.83
2018-12-31T21:04:56.354Z,77.77
2018-12-31T21:07:24.674Z,77.58
2018-12-31T21:09:53.033Z,77.96
2018-12-31T21:12:21.377Z,77.22
2018-12-31T21:14:49.753Z,77.40
2018-12-31T21:17:18.490Z,78.31
2018-12-31T21:19:46.857Z,77.93
2018-12-31T21:22:15.198Z,78.20
2018-12-31T21:24:43.762Z,77.61
2018-12-31T21:27:12.299Z,77.03
2018-12-31T21:29:40.638Z,77.40
2018-12-31T21:32:09.566Z,77.35
2018-12-31T21:34:37.915Z,77.06
2018-12-31T21:37:06.267Z,77.48
2018-12-31T21:39:34.641Z,77.07
2018-12-31T21:42:02.949Z,77.07
2018-12-31T21:44:31.580Z,77.64
2018-12-31T21:46:59.942Z,78.24
2018-12-31T21:49:28.360Z,77.52
2018-12-31T21:51:56.717Z,77.50
2018-12-31T21:54:25.118Z,77.73
2018-12-31T21:56:53.513Z,77.84
2018-12-31T21:59:21.837Z,78.13
2018-12-31T22:01:50.209Z,77.19
2018-12-31T22:04:18.534Z,77.29
2018-12-31T22:06:46.977Z,76.65
2018-12-31T22:09:15.665Z,77.08
2018-12-31T22:11:44.427Z,77.24
2018-12-31T22:14:13.181Z,77.72
2018-12-31T22:16:41.521Z,77.98
2018-12-31T22:19:09.861Z,78.27
2018-12-31T22:21:38.231Z,77.95
2018-12-31T22:24:06.999Z,77.11
2018-12-31T22:26:35.364Z,77.47
2018-12-31T22:29:03.785Z,77.38
2018-12-31T22:31:32.168Z,78.32
2018-12-31T22:34:00.515Z,77.29
2018-12-31T22:36:28.925Z,77.62
2018-12-31T22:38:57.333Z,76.71
2018-12-31T22:41:25.688Z,77.77
2018-12-31T22:43:54.017Z,77.01
2018-12-31T22:46:22.379Z,76.43
2018-12-31T22:48:50.723Z,76.84
2018-12-31T22:51:19.455Z,77.07
2018-12-31T22:53:47.802Z,77.33
2018-12-31T22:56:16.127Z,77.54
2018-12-31T22:58:44.559Z,77.48
2018-12-31T23:01:13.826Z,77.42
2018-12-31T23:03:44.281Z,77.63
2018-12-31T23:06:12.655Z,78.02
2018-12-31T23:08:41.005Z,77.21
2018-12-31T23:11:09.387Z,78.06
2018-12-31T23:13:37.721Z,76.96
2018-12-31T23:16:06.251Z,77.38
2018-12-31T23:18:34.583Z,77.54
2018-12-31T23:21:02.955Z,77.40
2018-12-31T23:23:31.335Z,77.64
2018-12-31T23:25:59.677Z,76.93
2018-12-31T23:28:28.397Z,77.17
2018-12-31T23:30:57.148Z,76.77
2018-12-31T23:33:25.667Z,76.76
2018-12-31T23:35:54.085Z,77.26
2018-12-31T23:38:22.483Z,77.30
2018-12-31T23:40:50.826Z,77.61
2018-12-31T23:43:19.392Z,77.39
2018-12-31T23:45:47.755Z,77.50
2018-12-31T23:48:16.414Z,77.19
2018-12-31T23:50:44.773Z,76.47
2018-12-31T23:53:13.768Z,76.73
2018-12-31T23:55:42.097Z,76.81
2018-12-31T23:58:10.513Z,76.54
